createdAt,value
2018-04-14T00:01:21.146Z,10.50
2018-04-14T00:03:49.686Z,10.50
2018-04-14T00:06:18.092Z,10.60
2018-04-14T00:08:46.488Z,10.50
2018-04-14T00:11:15.701Z,10.40
2018-04-14T00:13:44.186Z,10.30
2018-04-14T00:16:12.634Z,10.20
2018-04-14T00:18:41.006Z,10.20
2018-04-14T00:21:10.380Z,10.10
2018-04-14T00:23:38.826Z,10.40
2018-04-14T00:26:07.610Z,10.10
2018-04-14T00:28:36.018Z,10.10
2018-04-14T00:31:04.421Z,10.10
2018-04-14T00:33:33.142Z,9.90
2018-04-14T00:36:02.300Z,10.00
2018-04-14T00:38:30.680Z,10.00
2018-04-14T00:40:59.252Z,10.00
2018-04-14T00:43:27.800Z,9.90
2018-04-14T00:45:56.165Z,9.90
2018-04-14T00:48:25.299Z,9.90
2018-04-14T00:50:53.692Z,9.90
2018-04-14T00:53:33.775Z,9.90
2018-04-14T00:56:02.938Z,9.60
2018-04-14T00:58:31.382Z,9.60
2018-04-14T01:01:01.250Z,9.30
2018-04-14T01:03:29.996Z,9.30
2018-04-14T01:05:58.363Z,9.40
2018-04-14T01:08:26.750Z,9.30
2018-04-14T01:10:55.160Z,9.30
2018-04-14T01:13:24.149Z,9.40
2018-04-14T01:15:52.562Z,9.40
2018-04-14T01:18:21.732Z,9.00
2018-04-14T01:20:50.084Z,9.00
2018-04-14T01:23:18.458Z,9.00
2018-04-14T01:25:47.327Z,9.00
2018-04-14T01:28:16.106Z,9.10
2018-04-14T01:30:44.478Z,9.20
2018-04-14T01:33:14.227Z,9.20
2018-04-14T01:35:42.594Z,9.20
2018-04-14T01:38:10.992Z,9.20
2018-04-14T01:40:39.370Z,9.20
2018-04-14T01:43:07.740Z,9.20
2018-04-14T01:45:37.715Z,9.20
2018-04-14T01:48:07.357Z,9.20
2018-04-14T01:50:35.954Z,9.20
2018-04-14T01:53:04.297Z,9.20
2018-04-14T01:55:33.176Z,9.20
2018-04-14T01:58:01.539Z,9.00
2018-04-14T02:00:30.693Z,9.10
2018-04-14T02:02:59.120Z,9.10
2018-04-14T02:05:28.243Z,9.20
2018-04-14T02:07:56.635Z,9.20
2018-04-14T02:10:24.997Z,9.20
2018-04-14T02:12:53.414Z,9.20
2018-04-14T02:15:21.973Z,9.10
2018-04-14T02:17:50.359Z,9.10
2018-04-14T02:20:18.769Z,8.90
2018-04-14T02:22:47.166Z,8.90
2018-04-14T02:25:16.305Z,9.00
2018-04-14T02:27:44.679Z,9.00
2018-04-14T02:30:13.046Z,9.10
2018-04-14T02:32:41.415Z,9.00
2018-04-14T02:35:09.830Z,8.90
2018-04-14T02:37:38.215Z,8.90
2018-04-14T02:40:06.618Z,8.90
2018-04-14T02:42:34.992Z,9.00
2018-04-14T02:45:03.355Z,9.00
2018-04-14T02:47:31.794Z,8.90
2018-04-14T02:50:00.189Z,9.00
2018-04-14T02:52:28.646Z,9.00
2018-04-14T02:54:57.072Z,9.10
2018-04-14T02:57:25.426Z,9.20
2018-04-14T02:59:53.787Z,9.10
2018-04-14T03:02:22.146Z,9.10
2018-04-14T03:04:50.543Z,9.10
2018-04-14T03:07:18.900Z,8.80
2018-04-14T03:09:48.062Z,8.90
2018-04-14T03:12:16.407Z,8.90
2018-04-14T03:14:44.818Z,8.90
2018-04-14T03:17:13.180Z,8.90
2018-04-14T03:19:41.557Z,8.90
2018-04-14T03:22:09.924Z,8.90
2018-04-14T03:24:38.394Z,8.90
2018-04-14T03:27:06.782Z,8.90
2018-04-14T03:29:35.139Z,8.80
2018-04-14T03:32:03.553Z,8.90
2018-04-14T03:34:31.898Z,8.80
2018-04-14T03:37:00.386Z,8.80
2018-04-14T03:39:28.762Z,8.90
2018-04-14T03:41:57.202Z,8.80
2018-04-14T03:44:26.621Z,8.60
2018-04-14T03:46:55.011Z,8.50
2018-04-14T03:49:23.793Z,8.50
2018-04-14T03:51:52.439Z,8.50
2018-04-14T03:54:21.587Z,8.20
2018-04-14T03:56:49.997Z,8.20
2018-04-14T03:59:18.755Z,8.00
2018-04-14T04:01:47.188Z,7.70
2018-04-14T04:04:16.323Z,7.60
2018-04-14T04:06:44.819Z,7.50
2018-04-14T04:09:13.179Z,7.60
2018-04-14T04:11:41.631Z,7.60
2018-04-14T04:14:10.007Z,7.70
2018-04-14T04:16:39.198Z,8.00
2018-04-14T04:19:20.007Z,7.90
2018-04-14T04:22:00.164Z,7.80
2018-04-14T04:24:40.315Z,7.80
2018-04-14T04:27:08.665Z,7.90
2018-04-14T04:29:37.039Z,8.00
2018-04-14T04:32:06.191Z,8.00
2018-04-14T04:34:34.555Z,8.00
2018-04-14T04:37:02.942Z,7.90
2018-04-14T04:39:31.333Z,7.80
2018-04-14T04:41:59.848Z,7.90
2018-04-14T04:44:29.011Z,7.90
2018-04-14T04:46:57.454Z,7.80
2018-04-14T04:49:25.834Z,7.90
2018-04-14T04:51:54.206Z,7.90
2018-04-14T04:54:22.601Z,7.90
2018-04-14T04:56:50.970Z,7.80
2018-04-14T04:59:19.342Z,7.70
2018-04-14T05:01:48.085Z,7.80
2018-04-14T05:04:17.234Z,7.80
2018-04-14T05:06:45.622Z,7.80
2018-04-14T05:09:14.587Z,7.90
2018-04-14T05:11:43.838Z,7.90
2018-04-14T05:14:12.230Z,8.00
2018-04-14T05:16:41.359Z,8.10
2018-04-14T05:19:09.803Z,8.10
2018-04-14T05:21:38.171Z,8.00
2018-04-14T05:24:06.671Z,7.90
2018-04-14T05:26:35.791Z,7.90
2018-04-14T05:29:04.430Z,7.80
2018-04-14T05:31:33.616Z,8.00
2018-04-14T05:34:01.986Z,8.00
2018-04-14T05:36:30.378Z,8.10
2018-04-14T05:38:58.754Z,8.10
2018-04-14T05:41:27.114Z,8.10
2018-04-14T05:43:55.482Z,8.10
2018-04-14T05:46:24.723Z,8.20
2018-04-14T05:48:53.866Z,8.40
2018-04-14T05:51:22.914Z,8.30
2018-04-14T05:53:52.078Z,8.50
2018-04-14T05:56:20.455Z,8.50
2018-04-14T05:58:48.920Z,8.60
2018-04-14T06:01:17.290Z,8.70
2018-04-14T06:03:46.525Z,8.90
2018-04-14T06:06:14.870Z,8.90
2018-04-14T06:08:43.251Z,9.00
2018-04-14T06:11:12.499Z,9.10
2018-04-14T06:13:41.655Z,9.30
2018-04-14T06:16:10.040Z,9.30
2018-04-14T06:18:38.432Z,9.40
2018-04-14T06:21:06.892Z,9.60
2018-04-14T06:23:36.035Z,9.90
2018-04-14T06:26:05.180Z,10.10
2018-04-14T06:28:33.584Z,10.00
2018-04-14T06:31:02.176Z,10.20
2018-04-14T06:33:31.315Z,10.60
2018-04-14T06:35:59.716Z,10.60
2018-04-14T06:38:28.085Z,10.80
2018-04-14T06:40:56.508Z,11.00
2018-04-14T06:43:24.942Z,11.10
2018-04-14T06:45:53.937Z,11.30
2018-04-14T06:48:22.359Z,11.40
2018-04-14T06:50:51.545Z,11.80
2018-04-14T06:53:19.903Z,11.80
2018-04-14T06:55:48.363Z,12.00
2018-04-14T06:58:17.495Z,12.40
2018-04-14T07:00:46.103Z,12.40
2018-04-14T07:03:15.622Z,12.80
2018-04-14T07:05:43.975Z,12.70
2018-04-14T07:08:12.817Z,12.90
2018-04-14T07:10:41.190Z,13.00
2018-04-14T07:13:09.612Z,13.10
2018-04-14T07:15:38.031Z,13.20
2018-04-14T07:18:06.419Z,13.40
2018-04-14T07:20:34.809Z,13.70
2018-04-14T07:23:03.214Z,13.90
2018-04-14T07:25:31.566Z,14.20
2018-04-14T07:27:59.983Z,14.40
2018-04-14T07:30:29.134Z,14.70
2018-04-14T07:32:57.504Z,14.70
2018-04-14T07:35:25.943Z,14.80
2018-04-14T07:37:54.400Z,15.10
2018-04-14T07:40:22.880Z,15.30
2018-04-14T07:42:51.282Z,15.40
2018-04-14T07:45:20.443Z,15.50
2018-04-14T07:47:48.822Z,15.50
2018-04-14T07:50:17.268Z,15.70
2018-04-14T07:52:45.653Z,15.80
2018-04-14T07:55:14.370Z,15.90
2018-04-14T07:57:42.815Z,16.10
2018-04-14T08:00:11.991Z,16.40
2018-04-14T08:02:40.404Z,16.30
2018-04-14T08:05:08.916Z,16.50
2018-04-14T08:07:37.288Z,16.60
2018-04-14T08:10:05.719Z,16.50
2018-04-14T08:12:34.158Z,16.50
2018-04-14T08:15:03.471Z,16.60
2018-04-14T08:17:32.871Z,16.70
2018-04-14T08:20:02.045Z,16.90
2018-04-14T08:22:30.496Z,16.90
2018-04-14T08:24:58.902Z,17.00
2018-04-14T08:27:27.358Z,17.10
2018-04-14T08:29:55.774Z,17.10
2018-04-14T08:32:24.930Z,17.20
2018-04-14T08:34:53.499Z,17.20
2018-04-14T08:37:21.882Z,17.30
2018-04-14T08:39:50.326Z,17.30
2018-04-14T08:42:19.494Z,17.20
2018-04-14T08:44:47.842Z,17.20
2018-04-14T08:47:16.259Z,17.30
2018-04-14T08:49:44.686Z,17.60
2018-04-14T08:52:13.090Z,17.70
2018-04-14T08:54:41.561Z,17.90
2018-04-14T08:57:10.759Z,18.10
2018-04-14T08:59:39.145Z,18.10
2018-04-14T09:02:07.508Z,18.10
2018-04-14T09:04:35.952Z,18.20
2018-04-14T09:07:04.635Z,18.30
2018-04-14T09:09:33.835Z,18.50
2018-04-14T09:12:02.207Z,18.50
2018-04-14T09:14:31.443Z,18.80
2018-04-14T09:16:59.804Z,18.80
2018-04-14T09:19:28.205Z,18.80
2018-04-14T09:21:56.600Z,18.90
2018-04-14T09:24:25.021Z,18.90
2018-04-14T09:26:54.150Z,18.90
2018-04-14T09:29:22.564Z,18.90
2018-04-14T09:31:50.942Z,19.00
2018-04-14T09:34:19.324Z,19.00
2018-04-14T09:36:47.751Z,19.10
2018-04-14T09:39:16.181Z,19.00
2018-04-14T09:41:44.556Z,19.10
2018-04-14T09:44:12.962Z,19.30
2018-04-14T09:46:42.099Z,19.50
2018-04-14T09:49:10.524Z,19.40
2018-04-14T09:51:39.655Z,19.70
2018-04-14T09:54:08.034Z,19.60
2018-04-14T09:56:36.424Z,19.60
2018-04-14T09:59:05.089Z,19.70
2018-04-14T10:01:33.464Z,19.80
2018-04-14T10:04:02.205Z,19.90
2018-04-14T10:06:30.663Z,20.00
2018-04-14T10:09:12.115Z,20.10
2018-04-14T10:11:40.468Z,20.10
2018-04-14T10:14:09.038Z,20.00
2018-04-14T10:16:37.443Z,20.00
2018-04-14T10:19:05.996Z,20.10
2018-04-14T10:21:35.414Z,20.20
2018-04-14T10:24:04.523Z,20.10
2018-04-14T10:26:32.938Z,20.30
2018-04-14T10:29:01.398Z,20.40
2018-04-14T10:31:29.814Z,20.60
2018-04-14T10:33:58.970Z,20.70
2018-04-14T10:36:27.375Z,20.70
2018-04-14T10:38:55.738Z,20.60
2018-04-14T10:41:24.116Z,20.60
2018-04-14T10:43:52.517Z,20.70
2018-04-14T10:46:20.931Z,20.90
2018-04-14T10:48:49.384Z,21.10
2018-04-14T10:51:17.855Z,21.20
2018-04-14T10:53:46.342Z,21.30
2018-04-14T10:56:15.485Z,21.30
2018-04-14T10:58:43.879Z,21.30
2018-04-14T11:01:12.718Z,21.20
2018-04-14T11:03:41.213Z,21.10
2018-04-14T11:06:09.620Z,21.20
2018-04-14T11:08:38.010Z,21.10
2018-04-14T11:11:06.602Z,21.20
2018-04-14T11:13:34.978Z,21.20
2018-04-14T11:16:03.343Z,21.10
2018-04-14T11:18:31.754Z,21.10
2018-04-14T11:21:00.133Z,21.00
2018-04-14T11:23:28.543Z,21.10
2018-04-14T11:25:57.016Z,21.20
2018-04-14T11:28:26.265Z,21.50
2018-04-14T11:30:54.697Z,21.50
2018-04-14T11:33:23.337Z,21.60
2018-04-14T11:35:51.757Z,21.70
2018-04-14T11:38:20.423Z,21.70
2018-04-14T11:40:49.616Z,21.80
2018-04-14T11:43:17.995Z,21.80
2018-04-14T11:45:46.450Z,21.70
2018-04-14T11:48:14.813Z,21.70
2018-04-14T11:50:43.269Z,21.70
2018-04-14T11:53:11.715Z,21.80
2018-04-14T11:55:40.858Z,21.90
2018-04-14T11:58:09.269Z,21.90
2018-04-14T12:00:38.439Z,21.90
2018-04-14T12:03:07.611Z,22.00
2018-04-14T12:05:36.307Z,22.20
2018-04-14T12:08:04.832Z,22.20
2018-04-14T12:10:33.243Z,22.20
2018-04-14T12:13:02.815Z,22.10
2018-04-14T12:15:31.262Z,22.10
2018-04-14T12:17:59.647Z,22.10
2018-04-14T12:20:28.061Z,22.20
2018-04-14T12:22:56.456Z,22.20
2018-04-14T12:25:25.658Z,22.10
2018-04-14T12:27:54.790Z,22.10
2018-04-14T12:30:24.932Z,22.10
2018-04-14T12:32:54.978Z,22.30
2018-04-14T12:35:23.652Z,22.50
2018-04-14T12:37:58.915Z,22.70
2018-04-14T12:40:27.407Z,22.80
2018-04-14T12:42:55.825Z,23.00
2018-04-14T12:45:24.273Z,23.10
2018-04-14T12:47:53.901Z,23.20
2018-04-14T12:50:22.321Z,23.30
2018-04-14T12:52:51.475Z,23.50
2018-04-14T12:55:19.849Z,23.40
2018-04-14T12:57:48.280Z,23.50
2018-04-14T13:00:17.440Z,23.60
2018-04-14T13:02:46.367Z,23.60
2018-04-14T13:05:15.553Z,23.80
2018-04-14T13:07:43.981Z,23.70
2018-04-14T13:10:12.543Z,23.80
2018-04-14T13:12:40.907Z,23.80
2018-04-14T13:15:10.062Z,23.90
2018-04-14T13:17:38.536Z,23.80
2018-04-14T13:20:07.248Z,23.70
2018-04-14T13:22:35.666Z,23.80
2018-04-14T13:25:04.534Z,23.90
2018-04-14T13:27:34.582Z,23.70
2018-04-14T13:30:03.122Z,23.70
2018-04-14T13:32:31.580Z,23.70
2018-04-14T13:34:59.950Z,23.60
2018-04-14T13:37:28.351Z,23.40
2018-04-14T13:39:56.773Z,23.40
2018-04-14T13:42:25.201Z,23.40
2018-04-14T13:44:53.648Z,23.40
2018-04-14T13:47:22.121Z,23.50
2018-04-14T13:49:50.558Z,23.50
2018-04-14T13:52:19.736Z,23.70
2018-04-14T13:54:48.142Z,23.70
2018-04-14T13:57:17.329Z,23.90
2018-04-14T13:59:47.472Z,24.00
2018-04-14T14:02:15.893Z,24.00
2018-04-14T14:04:46.181Z,24.10
2018-04-14T14:07:14.806Z,24.20
2018-04-14T14:09:43.252Z,24.20
2018-04-14T14:12:12.486Z,24.20
2018-04-14T14:14:40.871Z,24.20
2018-04-14T14:17:09.374Z,24.20
2018-04-14T14:19:38.576Z,24.30
2018-04-14T14:22:06.952Z,24.20
2018-04-14T14:24:36.135Z,24.60
2018-04-14T14:27:04.525Z,24.50
2018-04-14T14:29:33.690Z,24.80
2018-04-14T14:32:02.086Z,24.80
2018-04-14T14:34:30.613Z,24.80
2018-04-14T14:36:58.995Z,24.80
2018-04-14T14:39:27.390Z,24.80
2018-04-14T14:41:56.003Z,24.70
2018-04-14T14:44:24.469Z,24.60
2018-04-14T14:46:52.834Z,24.50
2018-04-14T14:49:21.255Z,24.30
2018-04-14T14:51:50.400Z,24.10
2018-04-14T14:54:18.848Z,24.00
2018-04-14T14:56:47.383Z,24.00
2018-04-14T14:59:15.741Z,23.80
2018-04-14T15:01:44.236Z,23.90
2018-04-14T15:04:12.631Z,23.70
2018-04-14T15:06:41.035Z,23.70
2018-04-14T15:09:10.177Z,23.20
2018-04-14T15:11:38.560Z,23.20
2018-04-14T15:14:06.930Z,23.00
2018-04-14T15:16:36.096Z,23.00
2018-04-14T15:19:04.500Z,23.00
2018-04-14T15:21:32.889Z,23.10
2018-04-14T15:24:01.301Z,23.20
2018-04-14T15:26:29.686Z,23.20
2018-04-14T15:28:58.839Z,23.20
2018-04-14T15:31:27.242Z,23.20
2018-04-14T15:33:55.620Z,23.20
2018-04-14T15:36:24.006Z,23.10
2018-04-14T15:38:52.686Z,23.00
2018-04-14T15:41:21.080Z,22.90
2018-04-14T15:43:50.343Z,22.90
2018-04-14T15:46:20.431Z,22.90
2018-04-14T15:48:48.887Z,22.90
2018-04-14T15:51:17.234Z,22.90
2018-04-14T15:53:45.677Z,22.90
2018-04-14T15:56:14.278Z,22.90
2018-04-14T15:58:42.658Z,22.80
2018-04-14T16:01:11.064Z,22.80
2018-04-14T16:03:44.724Z,22.80
2018-04-14T16:06:08.730Z,22.80
2018-04-14T16:08:37.178Z,22.80
2018-04-14T16:11:05.614Z,22.70
2018-04-14T16:13:34.797Z,22.70
2018-04-14T16:16:04.047Z,22.60
2018-04-14T16:18:32.462Z,22.60
2018-04-14T16:21:00.865Z,22.60
2018-04-14T16:23:30.765Z,22.60
2018-04-14T16:25:59.149Z,22.50
2018-04-14T16:28:28.010Z,22.50
2018-04-14T16:30:56.416Z,22.50
2018-04-14T16:33:25.590Z,22.40
2018-04-14T16:35:53.990Z,22.40
2018-04-14T16:38:23.153Z,22.40
2018-04-14T16:40:51.582Z,22.40
2018-04-14T16:43:19.980Z,22.30
2018-04-14T16:45:48.472Z,22.30
2018-04-14T16:48:17.104Z,22.30
2018-04-14T16:50:45.719Z,22.30
2018-04-14T16:53:14.099Z,22.20
2018-04-14T16:55:42.480Z,22.30
2018-04-14T16:58:11.132Z,22.20
2018-04-14T17:00:39.801Z,22.20
2018-04-14T17:03:08.561Z,22.20
2018-04-14T17:05:37.110Z,22.20
2018-04-14T17:08:05.614Z,22.20
2018-04-14T17:10:34.031Z,22.10
2018-04-14T17:13:02.438Z,22.10
2018-04-14T17:15:31.005Z,22.00
2018-04-14T17:18:01.227Z,22.00
2018-04-14T17:20:30.628Z,22.00
2018-04-14T17:22:59.795Z,21.90
2018-04-14T17:25:28.789Z,21.90
2018-04-14T17:27:58.236Z,21.90
2018-04-14T17:30:28.022Z,21.80
2018-04-14T17:32:56.390Z,21.90
2018-04-14T17:35:24.776Z,21.80
2018-04-14T17:37:53.178Z,21.80
2018-04-14T17:40:22.591Z,21.70
2018-04-14T17:42:50.964Z,21.70
2018-04-14T17:45:19.332Z,21.60
2018-04-14T17:47:48.639Z,21.60
2018-04-14T17:50:17.003Z,21.50
2018-04-14T17:52:46.202Z,21.50
2018-04-14T17:55:15.862Z,21.40
2018-04-14T17:57:44.443Z,21.40
2018-04-14T18:00:12.796Z,21.40
2018-04-14T18:02:41.238Z,21.30
2018-04-14T18:05:10.421Z,21.20
2018-04-14T18:07:38.801Z,21.10
2018-04-14T18:10:08.781Z,21.20
2018-04-14T18:12:37.160Z,21.00
2018-04-14T18:15:05.537Z,20.80
2018-04-14T18:17:33.924Z,20.50
2018-04-14T18:20:02.341Z,20.50
2018-04-14T18:22:30.855Z,20.40
2018-04-14T18:25:00.069Z,20.30
2018-04-14T18:27:28.455Z,20.30
2018-04-14T18:29:56.988Z,20.30
2018-04-14T18:32:26.252Z,19.90
2018-04-14T18:34:54.646Z,19.80
2018-04-14T18:37:23.052Z,19.70
2018-04-14T18:39:52.212Z,19.60
2018-04-14T18:42:20.801Z,19.60
2018-04-14T18:44:49.163Z,19.20
2018-04-14T18:47:17.575Z,19.00
2018-04-14T18:49:46.731Z,18.80
2018-04-14T18:52:15.146Z,18.80
2018-04-14T18:54:44.330Z,18.80
2018-04-14T18:57:12.772Z,18.80
2018-04-14T18:59:41.176Z,18.80
2018-04-14T19:02:09.580Z,18.80
2018-04-14T19:04:38.983Z,18.80
2018-04-14T19:07:08.245Z,18.80
2018-04-14T19:09:36.652Z,18.70
2018-04-14T19:12:05.023Z,18.70
2018-04-14T19:14:33.468Z,18.50
2018-04-14T19:17:01.858Z,18.40
2018-04-14T19:19:31.023Z,18.30
2018-04-14T19:21:59.458Z,18.20
2018-04-14T19:24:27.907Z,18.30
2018-04-14T19:26:56.275Z,18.30
2018-04-14T19:29:24.687Z,18.20
2018-04-14T19:31:53.071Z,17.90
2018-04-14T19:34:21.452Z,17.80
2018-04-14T19:36:49.900Z,17.70
2018-04-14T19:39:18.389Z,17.70
2018-04-14T19:41:46.809Z,17.70
2018-04-14T19:44:16.044Z,17.60
2018-04-14T19:46:44.439Z,17.50
2018-04-14T19:49:13.199Z,17.50
2018-04-14T19:51:41.683Z,17.60
2018-04-14T19:54:10.421Z,17.60
2018-04-14T19:56:38.895Z,17.60
2018-04-14T19:59:07.290Z,17.60
2018-04-14T20:01:35.662Z,17.60
2018-04-14T20:04:04.863Z,17.60
2018-04-14T20:06:34.047Z,17.60
2018-04-14T20:09:02.440Z,17.60
2018-04-14T20:11:31.625Z,17.60
2018-04-14T20:14:00.048Z,17.60
2018-04-14T20:16:28.442Z,17.60
2018-04-14T20:18:56.873Z,17.60
2018-04-14T20:21:26.031Z,17.20
2018-04-14T20:23:55.198Z,17.20
2018-04-14T20:26:23.826Z,17.10
2018-04-14T20:28:52.191Z,17.10
2018-04-14T20:31:20.574Z,17.10
2018-04-14T20:33:49.356Z,17.10
2018-04-14T20:36:17.760Z,17.10
2018-04-14T20:38:46.162Z,17.20
2018-04-14T20:41:15.309Z,17.00
2018-04-14T20:43:43.694Z,17.00
2018-04-14T20:46:12.080Z,16.90
2018-04-14T20:48:40.541Z,16.90
2018-04-14T20:51:08.950Z,17.00
2018-04-14T20:53:38.209Z,17.00
2018-04-14T20:56:06.570Z,16.90
2018-04-14T20:58:34.987Z,17.00
2018-04-14T21:01:03.355Z,17.00
2018-04-14T21:03:31.750Z,17.00
2018-04-14T21:06:00.199Z,16.80
2018-04-14T21:08:28.575Z,16.70
2018-04-14T21:10:56.972Z,16.60
2018-04-14T21:13:25.345Z,16.60
2018-04-14T21:15:54.509Z,16.60
2018-04-14T21:18:22.937Z,16.60
2018-04-14T21:20:51.348Z,16.60
2018-04-14T21:23:19.714Z,16.60
2018-04-14T21:25:48.875Z,16.40
2018-04-14T21:28:17.312Z,16.40
2018-04-14T21:30:45.738Z,16.30
2018-04-14T21:33:14.107Z,16.30
2018-04-14T21:35:42.551Z,16.30
2018-04-14T21:38:10.933Z,16.20
2018-04-14T21:40:39.325Z,16.00
2018-04-14T21:43:07.830Z,16.00
2018-04-14T21:45:36.219Z,16.10
2018-04-14T21:48:04.608Z,16.10
2018-04-14T21:50:32.966Z,16.20
2018-04-14T21:53:01.389Z,16.30
2018-04-14T21:55:30.515Z,16.50
2018-04-14T21:57:58.906Z,16.50
2018-04-14T22:00:27.373Z,16.60
2018-04-14T22:02:55.784Z,16.60
2018-04-14T22:05:24.256Z,16.60
2018-04-14T22:07:52.669Z,16.60
2018-04-14T22:10:21.814Z,16.50
2018-04-14T22:12:50.228Z,16.50
2018-04-14T22:15:18.611Z,16.60
2018-04-14T22:17:47.744Z,16.50
2018-04-14T22:20:16.182Z,16.50
2018-04-14T22:22:45.329Z,16.20
2018-04-14T22:25:14.055Z,16.20
2018-04-14T22:27:42.454Z,16.20
2018-04-14T22:30:11.598Z,16.10
2018-04-14T22:32:40.146Z,16.10
2018-04-14T22:35:08.514Z,16.10
2018-04-14T22:37:36.968Z,16.00
2018-04-14T22:40:05.356Z,16.20
2018-04-14T22:42:33.739Z,16.10
2018-04-14T22:45:02.913Z,15.90
2018-04-14T22:47:31.287Z,15.90
2018-04-14T22:49:59.685Z,15.90
2018-04-14T22:52:28.066Z,16.00
2018-04-14T22:54:57.231Z,16.20
2018-04-14T22:57:25.594Z,16.10
2018-04-14T22:59:53.971Z,16.10
2018-04-14T23:02:22.386Z,15.70
2018-04-14T23:04:50.814Z,15.50
2018-04-14T23:07:19.179Z,15.50
2018-04-14T23:09:47.539Z,15.50
2018-04-14T23:12:16.709Z,15.20
2018-04-14T23:14:45.342Z,15.20
2018-04-14T23:17:13.722Z,15.10
2018-04-14T23:19:42.296Z,15.20
2018-04-14T23:22:10.651Z,15.20
2018-04-14T23:24:39.810Z,15.40
2018-04-14T23:27:08.264Z,15.30
2018-04-14T23:29:36.749Z,15.50
2018-04-14T23:32:05.155Z,15.50
2018-04-14T23:34:33.578Z,15.60
2018-04-14T23:37:01.990Z,15.50
2018-04-14T23:39:30.523Z,15.50
2018-04-14T23:41:59.653Z,15.30
2018-04-14T23:44:28.063Z,15.30
2018-04-14T23:46:56.430Z,15.30
2018-04-14T23:49:24.844Z,15.20
2018-04-14T23:51:53.328Z,15.10
2018-04-14T23:54:22.559Z,15.10
2018-04-14T23:56:50.917Z,15.10
2018-04-14T23:59:20.067Z,15.30
